CYFB

Details ICAO CYFB (YFB)
Name Iqaluit
Region Canada
Timezone America/Iqaluit (UTC-4.0)
Plans Departing 300
Arriving 373
Stats Elevation 109 ft / 33 m (AMSL)
Location 63.756600° -68.556100°
Runways 1
Magnetic Variation 26.986° W
Sunrise 2019-05-25 06:55:56 UTC / 2019-05-25 02:55:56 Local
Sunset 2019-05-26 02:09:15 UTC / 2019-05-25 22:09:15 Local
Advertisement - Login to hide

Runways

ID Width Length Bearing (true/mag) Surface Threshold Overrun Markings Lighting
17 197 ft / 60 m 8,559 ft / 2,609 m 135.63° / 162.62° ASPHALT 0 ft / 0 m 200 ft / 61 m APP CENTERLINE EDGE THRESHOLD MALSF
35 197 ft / 60 m 8,559 ft / 2,609 m 315.66° / 342.65° ASPHALT 0 ft / 0 m 239 ft / 73 m APP CENTERLINE EDGE THRESHOLD MALSF

Map

Weather


0- 5 10 15 20 25 30 35+ Temperature / °C

Clouds and Precipitation
Forecast for 2019-05-25 18:00 UTC. Updated 3 hours ago

Ground ~20,000 ft ~40,000 ft Winds

METAR

CYFB 251800Z 26010KT 30SM FEW034 FEW250 04/M04 A3004 RMK SC2CI1 CI TR SLP177

TAF

TAF CYFB 251739Z 2518/2618 26008KT P6SM FEW030 SCT250 TEMPO 2518/2606 BKN030 BKN250 BECMG 2523/2601 VRB03KT FM260600 15005KT P6SM BKN025 TEMPO 2606/2616 FEW009 BKN020 FM261600 16010KT P6SM SCT025 RMK NXT FCST BY 260000Z

Frequencies

Recorded 126.70 MHz FSS
Unicom 126.90 MHz MULTICOM
Tower 134.55 MHz CNTR
Unicom 126.70 MHz MULTICOM
Recorded 122.20 MHz FSS
Warning: Do not use this data for real-world aviation or navigation. No guarantee of current accuracy is given.